Airfield :
LOGIN :

Register | Disclaimer

   EN    FR    IT 

 










Legend :    VFR   Marginal VFR   IFR   Intensive IFR   Very Intensive IFR
Visi :
Ceiling :
>= 8 km
>= 3000ft
5 to 8 km
1000 to 3000 ft
1500m to 5 km
500 to 1000 ft
800 to 1500m
200 to 500 ft
< 800m
< 200 ft
Symbols :   Thunderstorms  Fog  Heavy snow  Heavy precipitations  Wind > 20 kt
SIGMETs :     Misc.  Thunderstorms  Icing  Turbulence  Mountain Waves  Volcanic Ashes






- Airport Elevation : 370 ft


EBBE - Beauvechain AB

CURRENT METAR :
  • 260855Z AUTO 29011KT 9999 SCT010/// BKN018/// BKN034/// 11/09 Q1000 GRN

EXPIRED METARs :
  • 260844Z AUTO 29010KT 9999 FEW010/// SCT014/// BKN029/// 11/09 Q1000 GRN
  • 260843Z AUTO 29010KT 9999 FEW010/// SCT018/// BKN030/// 11/09 Q1000 WHT
  • 260825Z AUTO 29010KT 9999 FEW010/// SCT014/// BKN100/// 11/09 Q0999 GRN
  • 260755Z AUTO 29009KT 9999 FEW010/// SCT013/// BKN027/// 11/09 Q0999 GRN
  • 260725Z AUTO 29008KT 9999 SCT010/// BKN014/// BKN100/// 11/09 Q0999 GRN
  • 260709Z AUTO 29008KT 9999 FEW010/// SCT013/// BKN033/// 10/09 Q0999 GRN
  • 260704Z AUTO 29008KT 9999 FEW012/// SCT015/// 10/09 Q0999 WHT
  • 260644Z AUTO 30008KT 9999 FEW012/// SCT055/// 10/08 Q0999 BLU
  • 260625Z AUTO 30011KT 9999 FEW008/// SCT012/// BKN030/// 10/09 Q0998 GRN
  • 260555Z AUTO 30011KT 7000 -RA FEW009/// SCT011/// BKN014/// 10/09 Q0998 GRN

Expired Forecast.



MET'MAP, your aeronautical weather chart ! - Copyright ORBIFLY December 2007 - Disclaimer

ORBIFLY MET'MAP TEAM :

Programming & Development : Alexandra Zaïnal
Concept & original design : Baudouin d'Aumeries
Assistance for programming : Marc-Olivier Méhu
Technical & hardware support : Manuel Goepfert

Contact : metmap@orbifly.com




SOURCES & CREDITS :

   NOAA